FNLU

Quatro de Fevereiro Airport

Luanda, Angola
METAR FNLU 190500Z 18004KT 8000 FEW015 BKN021 22/19 Q1014 NOSIG
Observed Flight Rules
Sep-19 @ 05:00 UTC (14 minutes ago) Marginal Visual Flight Rules
Wind Visibility Clouds
180° at 4 knots 7,998 meters
  • Few at 1,500' AGL
  • Broken at 2,100' AGL
Temperatures Readings
Current 22°C / 72°F
Dewpoint 19°C / 66°F
Humidity 83%
Altimeter 29.94" Hg
Pressure 1014 hPa
Elevation 70
METAR FNLU 190500Z 18004KT 8000 FEW015 BKN021 22/19 Q1014 NOSIG
Observed Flight Rules
Sep-19 @ 05:00 UTC
(14 minutes ago)
MVFR
Wind Visibility
180° at 4 knots 7,998 meters
Clouds
  • Few at 1,500' AGL
  • Broken at 2,100' AGL
Temperature Dewpoint
22°C / 72°F 19°C / 66°F
Humidity Altimeter Pressure
83% 29.94" Hg 1014 hPa